createdAt,value
2018-02-11T00:00:36.084Z,43.85
2018-02-11T00:03:10.536Z,55.80
2018-02-11T00:05:45.021Z,53.58
2018-02-11T00:08:19.425Z,44.45
2018-02-11T00:10:53.992Z,49.80
2018-02-11T00:13:28.513Z,56.40
2018-02-11T00:16:03.123Z,60.33
2018-02-11T00:18:37.664Z,62.03
2018-02-11T00:21:12.167Z,58.35
2018-02-11T00:23:46.660Z,56.17
2018-02-11T00:26:21.134Z,65.35
2018-02-11T00:28:55.655Z,67.20
2018-02-11T00:31:30.165Z,62.72
2018-02-11T00:34:04.580Z,76.78
2018-02-11T00:36:53.793Z,65.53
2018-02-11T00:39:28.179Z,78.12
2018-02-11T00:42:02.527Z,61.05
2018-02-11T00:44:37.047Z,71.43
2018-02-11T00:47:11.613Z,65.32
2018-02-11T00:49:46.096Z,73.90
2018-02-11T00:52:21.331Z,79.97
2018-02-11T00:54:55.898Z,71.90
2018-02-11T00:57:30.369Z,81.47
2018-02-11T01:00:04.892Z,81.45
2018-02-11T01:02:39.341Z,81.93
2018-02-11T01:05:13.751Z,62.08
2018-02-11T01:07:48.437Z,64.87
2018-02-11T01:10:22.787Z,68.35
2018-02-11T01:12:57.266Z,53.80
2018-02-11T01:15:31.763Z,73.65
2018-02-11T01:18:06.276Z,64.22
2018-02-11T01:20:40.656Z,65.80
2018-02-11T01:23:15.080Z,74.60
2018-02-11T01:25:49.756Z,57.58
2018-02-11T01:28:24.530Z,55.92
2018-02-11T01:30:59.713Z,61.37
2018-02-11T01:33:34.121Z,72.57
2018-02-11T01:36:08.479Z,47.58
2018-02-11T01:38:43.081Z,59.10
2018-02-11T01:41:17.523Z,78.57
2018-02-11T01:43:52.819Z,55.63
2018-02-11T01:46:27.208Z,62.88
2018-02-11T01:49:01.535Z,75.93
2018-02-11T01:51:36.004Z,64.05
2018-02-11T01:54:10.504Z,64.22
2018-02-11T01:56:45.762Z,63.30
2018-02-11T01:59:20.199Z,66.90
2018-02-11T02:01:55.415Z,58.75
2018-02-11T02:04:29.813Z,86.60
2018-02-11T02:07:04.328Z,67.80
2018-02-11T02:09:39.697Z,74.70
2018-02-11T02:12:14.191Z,74.80
2018-02-11T02:14:48.640Z,65.10
2018-02-11T02:17:23.129Z,50.47
2018-02-11T02:19:58.808Z,61.00
2018-02-11T02:22:33.152Z,56.35
2018-02-11T02:25:07.672Z,62.22
2018-02-11T02:27:42.262Z,68.53
2018-02-11T02:30:16.699Z,68.50
2018-02-11T02:32:51.161Z,68.12
2018-02-11T02:35:25.647Z,54.30
2018-02-11T02:38:01.004Z,70.12
2018-02-11T02:40:35.380Z,42.97
2018-02-11T02:43:10.020Z,63.58
2018-02-11T02:45:44.533Z,55.15
2018-02-11T02:48:18.908Z,56.78
2018-02-11T02:50:53.336Z,56.17
2018-02-11T02:53:27.745Z,53.22
2018-02-11T02:56:02.444Z,53.03
2018-02-11T02:58:37.036Z,50.53
2018-02-11T03:01:11.543Z,57.60
2018-02-11T03:03:46.087Z,59.78
2018-02-11T03:06:21.432Z,42.28
2018-02-11T03:08:56.044Z,58.17
2018-02-11T03:11:30.550Z,45.65
2018-02-11T03:14:05.089Z,58.72
2018-02-11T03:16:39.494Z,50.22
2018-02-11T03:19:13.970Z,56.45
2018-02-11T03:21:48.527Z,49.90
2018-02-11T03:24:22.868Z,63.22
2018-02-11T03:26:57.357Z,43.47
2018-02-11T03:29:31.866Z,58.05
2018-02-11T03:32:06.472Z,64.47
2018-02-11T03:34:40.943Z,45.30
2018-02-11T03:37:15.307Z,65.05
2018-02-11T03:39:49.669Z,58.70
2018-02-11T03:42:24.227Z,49.53
2018-02-11T03:44:58.744Z,37.33
2018-02-11T03:47:33.133Z,37.35
2018-02-11T03:50:08.410Z,57.55
2018-02-11T03:52:42.862Z,47.55
2018-02-11T03:55:17.312Z,45.50
2018-02-11T03:57:51.758Z,48.42
2018-02-11T04:00:27.108Z,58.55
2018-02-11T04:03:01.612Z,47.13
2018-02-11T04:05:36.108Z,50.53
2018-02-11T04:08:10.516Z,53.47
2018-02-11T04:10:44.984Z,33.30
2018-02-11T04:13:19.535Z,38.50
2018-02-11T04:15:54.153Z,51.53
2018-02-11T04:18:28.653Z,50.85
2018-02-11T04:21:03.104Z,39.95
2018-02-11T04:23:37.703Z,29.25
2018-02-11T04:26:12.177Z,43.35
2018-02-11T04:28:47.428Z,39.13
2018-02-11T04:31:21.772Z,43.97
2018-02-11T04:33:56.359Z,37.65
2018-02-11T04:36:30.773Z,41.72
2018-02-11T04:39:06.016Z,41.92
2018-02-11T04:41:40.437Z,50.25
2018-02-11T04:44:14.984Z,40.12
2018-02-11T04:46:49.461Z,40.80
2018-02-11T04:49:24.028Z,35.65
2018-02-11T04:51:58.640Z,44.08
2018-02-11T04:54:33.199Z,27.10
2018-02-11T04:57:07.584Z,30.80
2018-02-11T04:59:42.008Z,40.28
2018-02-11T05:02:16.428Z,28.98
2018-02-11T05:04:50.940Z,35.40
2018-02-11T05:07:25.487Z,38.50
2018-02-11T05:09:59.873Z,34.40
2018-02-11T05:12:34.248Z,31.00
2018-02-11T05:15:08.771Z,28.50
2018-02-11T05:17:43.292Z,33.08
2018-02-11T05:20:17.956Z,34.78
2018-02-11T05:22:53.085Z,37.70
2018-02-11T05:25:27.600Z,32.63
2018-02-11T05:28:01.985Z,37.42
2018-02-11T05:30:36.353Z,30.75
2018-02-11T05:33:10.806Z,36.55
2018-02-11T05:35:45.331Z,29.67
2018-02-11T05:38:19.822Z,25.70
2018-02-11T05:40:54.351Z,30.27
2018-02-11T05:43:28.821Z,30.62
2018-02-11T05:46:03.328Z,29.58
2018-02-11T05:48:37.736Z,32.08
2018-02-11T05:51:12.344Z,28.67
2018-02-11T05:53:46.801Z,27.60
2018-02-11T05:56:21.344Z,28.02
2018-02-11T05:58:55.676Z,31.10
2018-02-11T06:01:30.176Z,29.60
2018-02-11T06:04:04.608Z,28.30
2018-02-11T06:06:39.164Z,27.13
2018-02-11T06:09:13.581Z,28.38
2018-02-11T06:11:47.987Z,24.17
2018-02-11T06:14:23.273Z,24.60
2018-02-11T06:16:57.805Z,21.98
2018-02-11T06:19:32.326Z,33.28
2018-02-11T06:22:06.694Z,25.90
2018-02-11T06:24:41.203Z,20.80
2018-02-11T06:27:15.522Z,22.75
2018-02-11T06:29:49.941Z,24.40
2018-02-11T06:32:24.466Z,18.15
2018-02-11T06:34:59.012Z,34.55
2018-02-11T06:37:34.236Z,25.42
2018-02-11T06:40:08.851Z,17.08
2018-02-11T06:42:43.289Z,26.12
2018-02-11T06:45:17.855Z,19.20
2018-02-11T06:47:52.364Z,25.15
2018-02-11T06:50:26.931Z,33.90
2018-02-11T06:53:01.451Z,28.87
2018-02-11T06:55:36.691Z,34.15
2018-02-11T06:58:11.037Z,24.87
2018-02-11T07:00:45.556Z,25.37
2018-02-11T07:03:19.878Z,27.08
2018-02-11T07:05:54.430Z,29.55
2018-02-11T07:08:29.011Z,22.17
2018-02-11T07:11:03.548Z,28.83
2018-02-11T07:13:37.958Z,24.15
2018-02-11T07:16:12.315Z,23.25
2018-02-11T07:18:47.600Z,22.48
2018-02-11T07:21:21.967Z,32.25
2018-02-11T07:23:56.461Z,18.80
2018-02-11T07:26:30.817Z,20.95
2018-02-11T07:29:05.312Z,30.48
2018-02-11T07:31:39.792Z,21.55
2018-02-11T07:34:14.343Z,22.65
2018-02-11T07:36:48.744Z,30.62
2018-02-11T07:39:23.239Z,27.27
2018-02-11T07:41:58.520Z,23.00
2018-02-11T07:44:33.264Z,25.55
2018-02-11T07:47:07.671Z,31.02
2018-02-11T07:49:42.250Z,25.30
2018-02-11T07:52:16.632Z,32.42
2018-02-11T07:54:51.028Z,25.08
2018-02-11T07:57:26.542Z,22.05
2018-02-11T08:00:00.948Z,21.98
2018-02-11T08:02:35.549Z,24.15
2018-02-11T08:05:10.148Z,21.90
2018-02-11T08:07:44.638Z,23.50
2018-02-11T08:10:19.857Z,16.60
2018-02-11T08:12:54.391Z,27.48
2018-02-11T08:15:28.844Z,20.95
2018-02-11T08:18:03.345Z,24.40
2018-02-11T08:20:37.756Z,21.25
2018-02-11T08:23:12.347Z,20.55
2018-02-11T08:25:46.875Z,24.15
2018-02-11T08:28:21.332Z,19.70
2018-02-11T08:30:55.684Z,16.25
2018-02-11T08:33:30.154Z,24.65
2018-02-11T08:36:04.841Z,21.45
2018-02-11T08:38:39.290Z,15.88
2018-02-11T08:41:13.779Z,10.00
2018-02-11T08:43:48.280Z,15.85
2018-02-11T08:46:22.826Z,13.98
2018-02-11T08:48:57.412Z,22.42
2018-02-11T08:51:36.948Z,14.48
2018-02-11T08:54:11.491Z,13.02
2018-02-11T08:56:45.910Z,22.13
2018-02-11T08:59:20.283Z,16.30
2018-02-11T09:01:54.944Z,19.02
2018-02-11T09:04:29.528Z,23.95
2018-02-11T09:07:04.168Z,14.43
2018-02-11T09:09:38.624Z,15.55
2018-02-11T09:12:13.152Z,14.45
2018-02-11T09:14:47.636Z,17.92
2018-02-11T09:17:22.186Z,12.20
2018-02-11T09:19:56.739Z,18.98
2018-02-11T09:22:31.218Z,11.48
2018-02-11T09:25:05.588Z,17.10
2018-02-11T09:27:40.101Z,9.20
2018-02-11T09:30:14.710Z,11.27
2018-02-11T09:32:49.282Z,14.90
2018-02-11T09:35:23.816Z,11.57
2018-02-11T09:37:58.393Z,13.82
2018-02-11T09:40:32.960Z,12.40
2018-02-11T09:43:07.474Z,13.38
2018-02-11T09:45:41.896Z,11.55
2018-02-11T09:48:16.348Z,10.50
2018-02-11T09:50:51.467Z,12.23
2018-02-11T09:53:26.801Z,6.72
2018-02-11T09:56:01.180Z,12.48
2018-02-11T09:58:35.588Z,10.57
2018-02-11T10:01:10.057Z,10.68
2018-02-11T10:03:44.520Z,9.05
2018-02-11T10:06:19.108Z,10.70
2018-02-11T10:08:53.620Z,9.32
2018-02-11T10:11:28.267Z,5.30
2018-02-11T10:14:02.684Z,10.00
2018-02-11T10:16:37.002Z,8.27
2018-02-11T10:19:11.617Z,9.52
2018-02-11T10:21:46.052Z,12.32
2018-02-11T10:24:20.535Z,9.45
2018-02-11T10:26:55.859Z,7.60
2018-02-11T10:29:30.316Z,10.30
2018-02-11T10:32:04.703Z,7.37
2018-02-11T10:34:39.252Z,8.23
2018-02-11T10:37:14.384Z,9.75
2018-02-11T10:39:48.796Z,7.70
2018-02-11T10:42:23.333Z,9.98
2018-02-11T10:44:57.752Z,9.10
2018-02-11T10:47:32.346Z,10.07
2018-02-11T10:50:07.681Z,9.50
2018-02-11T10:52:42.371Z,4.53
2018-02-11T10:55:16.909Z,7.82
2018-02-11T10:57:51.501Z,11.15
2018-02-11T11:00:26.903Z,8.95
2018-02-11T11:03:01.426Z,10.32
2018-02-11T11:05:35.870Z,12.90
2018-02-11T11:08:10.417Z,6.90
2018-02-11T11:10:45.079Z,10.75
2018-02-11T11:13:19.533Z,13.60
2018-02-11T11:15:53.877Z,8.80
2018-02-11T11:18:28.360Z,8.35
2018-02-11T11:21:03.516Z,12.65
2018-02-11T11:23:38.054Z,7.78
2018-02-11T11:26:13.666Z,2.67
2018-02-11T11:28:48.096Z,8.82
2018-02-11T11:31:22.645Z,9.13
2018-02-11T11:33:58.088Z,8.18
2018-02-11T11:36:32.638Z,3.12
2018-02-11T11:39:07.018Z,7.45
2018-02-11T11:41:41.562Z,5.78
2018-02-11T11:44:16.124Z,9.15
2018-02-11T11:46:50.584Z,8.23
2018-02-11T11:49:25.108Z,5.35
2018-02-11T11:51:59.978Z,2.47
2018-02-11T11:54:34.412Z,4.68
2018-02-11T11:57:08.825Z,6.37
2018-02-11T11:59:43.321Z,3.45
2018-02-11T12:02:17.787Z,2.60
2018-02-11T12:04:52.232Z,5.65
2018-02-11T12:07:27.633Z,10.10
2018-02-11T12:10:01.999Z,5.35
2018-02-11T12:12:36.511Z,9.30
2018-02-11T12:15:10.993Z,3.50
2018-02-11T12:17:45.920Z,3.12
2018-02-11T12:20:20.375Z,7.75
2018-02-11T12:22:54.908Z,5.68
2018-02-11T12:25:29.379Z,4.65
2018-02-11T12:28:03.785Z,7.25
2018-02-11T12:30:39.056Z,3.30
2018-02-11T12:33:13.510Z,4.22
2018-02-11T12:35:48.026Z,4.32
2018-02-11T12:38:24.172Z,9.43
2018-02-11T12:40:58.676Z,4.55
2018-02-11T12:43:33.212Z,4.00
2018-02-11T12:46:07.651Z,3.72
2018-02-11T12:48:42.240Z,6.00
2018-02-11T12:51:16.688Z,3.35
2018-02-11T12:53:51.064Z,2.50
2018-02-11T12:56:25.530Z,7.32
2018-02-11T12:59:00.037Z,1.85
2018-02-11T13:01:34.517Z,5.45
2018-02-11T13:04:09.052Z,6.68
2018-02-11T13:06:43.617Z,8.15
2018-02-11T13:09:18.133Z,2.80
2018-02-11T13:11:52.625Z,7.00
2018-02-11T13:14:26.949Z,5.20
2018-02-11T13:17:02.231Z,3.20
2018-02-11T13:19:36.547Z,5.25
2018-02-11T13:22:11.670Z,7.40
2018-02-11T13:24:46.167Z,2.37
2018-02-11T13:27:21.440Z,5.75
2018-02-11T13:29:55.838Z,4.20
2018-02-11T13:32:31.048Z,1.80
2018-02-11T13:35:05.531Z,3.80
2018-02-11T13:37:40.860Z,6.00
2018-02-11T13:40:15.481Z,4.55
2018-02-11T13:42:49.843Z,4.45
2018-02-11T13:45:24.442Z,5.05
2018-02-11T13:47:58.972Z,8.43
2018-02-11T13:50:33.411Z,2.55
2018-02-11T13:53:08.571Z,7.18
2018-02-11T13:55:43.017Z,6.57
2018-02-11T14:00:57.804Z,5.87
2018-02-11T14:03:32.302Z,3.62
2018-02-11T14:06:06.853Z,3.03
2018-02-11T14:08:41.493Z,9.10
2018-02-11T14:11:16.056Z,3.55
2018-02-11T14:13:50.494Z,2.65
2018-02-11T14:16:25.015Z,5.35
2018-02-11T14:19:00.252Z,6.95
2018-02-11T14:21:34.863Z,5.82
2018-02-11T14:24:09.212Z,3.65
2018-02-11T14:26:43.504Z,2.78
2018-02-11T14:29:17.848Z,3.90
2018-02-11T14:31:52.267Z,5.68
2018-02-11T14:34:26.795Z,2.75
2018-02-11T14:37:01.327Z,2.58
2018-02-11T14:39:35.921Z,4.70
2018-02-11T14:42:11.160Z,4.35
2018-02-11T14:44:46.360Z,2.90
2018-02-11T14:47:21.551Z,11.57
2018-02-11T14:49:56.032Z,5.40
2018-02-11T14:52:30.711Z,3.22
2018-02-11T14:55:05.268Z,3.15
2018-02-11T14:57:39.691Z,3.58
2018-02-11T15:00:14.189Z,2.05
2018-02-11T15:02:48.524Z,6.68
2018-02-11T15:05:23.131Z,5.95
2018-02-11T15:07:57.497Z,4.87
2018-02-11T15:10:32.048Z,5.70
2018-02-11T15:13:06.564Z,2.53
2018-02-11T15:15:41.104Z,5.00
2018-02-11T15:18:15.692Z,1.45
2018-02-11T15:20:50.193Z,1.85
2018-02-11T15:23:24.716Z,3.97
2018-02-11T15:26:00.077Z,5.53
2018-02-11T15:28:34.580Z,2.03
2018-02-11T15:31:08.943Z,4.43
2018-02-11T15:33:43.376Z,6.28
2018-02-11T15:36:17.960Z,2.90
2018-02-11T15:38:52.472Z,1.70
2018-02-11T15:41:27.039Z,1.60
2018-02-11T15:44:01.642Z,3.53
2018-02-11T15:46:36.973Z,6.03
2018-02-11T15:49:12.279Z,1.50
2018-02-11T15:51:46.796Z,5.45
2018-02-11T15:54:21.360Z,2.47
2018-02-11T15:56:55.900Z,7.53
2018-02-11T15:59:32.046Z,2.83
2018-02-11T16:02:07.296Z,3.70
2018-02-11T16:04:41.813Z,2.25
2018-02-11T16:07:16.679Z,2.87
2018-02-11T16:09:51.117Z,2.97
2018-02-11T16:12:25.591Z,4.43
2018-02-11T16:14:59.990Z,1.50
2018-02-11T16:17:34.496Z,8.40
2018-02-11T16:20:09.026Z,3.03
2018-02-11T16:22:43.547Z,0.98
2018-02-11T16:25:17.954Z,2.12
2018-02-11T16:27:52.600Z,2.47
2018-02-11T16:30:26.928Z,1.17
2018-02-11T16:33:01.566Z,4.40
2018-02-11T16:35:36.052Z,3.12
2018-02-11T16:38:10.376Z,3.25
2018-02-11T16:40:44.767Z,2.15
2018-02-11T16:43:19.274Z,2.65
2018-02-11T16:45:53.817Z,6.97
2018-02-11T16:48:28.172Z,1.25
2018-02-11T16:51:02.741Z,2.80
2018-02-11T16:53:37.047Z,3.62
2018-02-11T16:56:11.632Z,8.43
2018-02-11T16:58:46.002Z,5.25
2018-02-11T17:01:20.458Z,5.07
2018-02-11T17:03:54.984Z,3.83
2018-02-11T17:06:29.340Z,3.95
2018-02-11T17:09:03.846Z,12.07
2018-02-11T17:11:38.173Z,7.37
2018-02-11T17:14:12.696Z,1.73
2018-02-11T17:16:47.161Z,1.15
2018-02-11T17:19:22.545Z,2.37
2018-02-11T17:21:56.948Z,4.65
2018-02-11T17:24:31.498Z,3.10
2018-02-11T17:27:06.000Z,1.12
2018-02-11T17:29:40.465Z,2.37
2018-02-11T17:32:15.032Z,8.38
2018-02-11T17:34:50.206Z,9.98
2018-02-11T17:37:24.545Z,3.40
2018-02-11T17:39:58.993Z,1.60
2018-02-11T17:42:33.495Z,3.33
2018-02-11T17:45:07.933Z,2.17
2018-02-11T17:47:42.406Z,3.03
2018-02-11T17:50:17.000Z,2.42
2018-02-11T17:52:51.323Z,1.42
2018-02-11T17:55:26.465Z,0.90
2018-02-11T17:58:01.551Z,2.60
2018-02-11T18:00:36.188Z,1.00
2018-02-11T18:03:10.599Z,12.43
2018-02-11T18:05:45.217Z,11.55
2018-02-11T18:08:19.744Z,2.35
2018-02-11T18:10:54.863Z,2.85
2018-02-11T18:13:29.380Z,1.48
2018-02-11T18:16:04.616Z,2.17
2018-02-11T18:18:39.199Z,0.88
2018-02-11T18:21:13.815Z,4.87
2018-02-11T18:23:48.245Z,2.33
2018-02-11T18:26:23.547Z,0.70
2018-02-11T18:28:58.037Z,5.55
2018-02-11T18:31:32.672Z,3.55
2018-02-11T18:34:07.161Z,4.82
2018-02-11T18:36:41.646Z,10.75
2018-02-11T18:39:16.266Z,3.40
2018-02-11T18:41:50.651Z,1.58
2018-02-11T18:44:25.252Z,3.22
2018-02-11T18:46:59.735Z,4.43
2018-02-11T18:49:35.784Z,1.92
2018-02-11T18:52:10.284Z,1.02
2018-02-11T18:54:44.595Z,2.12
2018-02-11T18:57:19.068Z,2.78
2018-02-11T18:59:53.676Z,11.05
2018-02-11T19:02:28.218Z,7.30
2018-02-11T19:05:02.660Z,1.80
2018-02-11T19:07:37.727Z,2.92
2018-02-11T19:10:12.274Z,5.50
2018-02-11T19:12:46.812Z,9.95
2018-02-11T19:15:21.123Z,12.07
2018-02-11T19:17:55.816Z,9.13
2018-02-11T19:20:30.152Z,1.35
2018-02-11T19:23:04.709Z,3.03
2018-02-11T19:25:39.083Z,5.47
2018-02-11T19:28:13.599Z,10.60
2018-02-11T19:30:48.101Z,2.80
2018-02-11T19:33:23.383Z,13.45
2018-02-11T19:35:58.492Z,8.70
2018-02-11T19:38:32.912Z,9.38
2018-02-11T19:41:07.445Z,7.55
2018-02-11T19:43:41.765Z,5.18
2018-02-11T19:46:16.248Z,3.15
2018-02-11T19:48:50.872Z,4.87
2018-02-11T19:51:25.435Z,1.73
2018-02-11T19:53:59.943Z,5.97
2018-02-11T19:56:34.363Z,3.22
2018-02-11T19:59:08.834Z,7.53
2018-02-11T20:01:43.404Z,12.82
2018-02-11T20:04:17.938Z,2.75
2018-02-11T20:06:52.274Z,4.82
2018-02-11T20:09:26.898Z,0.90
2018-02-11T20:12:01.400Z,4.75
2018-02-11T20:14:36.308Z,6.15
2018-02-11T20:17:10.735Z,1.87
2018-02-11T20:19:45.290Z,4.35
2018-02-11T20:22:19.839Z,6.40
2018-02-11T20:24:54.230Z,4.53
2018-02-11T20:27:28.748Z,20.90
2018-02-11T20:30:03.283Z,2.58
2018-02-11T20:32:37.736Z,8.88
2018-02-11T20:35:12.329Z,3.53
2018-02-11T20:37:46.891Z,4.97
2018-02-11T20:40:22.160Z,1.00
2018-02-11T20:42:56.578Z,5.87
2018-02-11T20:45:31.721Z,2.60
2018-02-11T20:48:06.187Z,2.05
2018-02-11T20:50:40.644Z,4.72
2018-02-11T20:53:15.120Z,2.53
2018-02-11T20:55:50.409Z,4.12
2018-02-11T20:58:24.927Z,6.82
2018-02-11T21:00:59.529Z,15.63
2018-02-11T21:03:34.017Z,2.17
2018-02-11T21:06:08.501Z,4.87
2018-02-11T21:08:43.091Z,4.80
2018-02-11T21:11:17.670Z,5.25
2018-02-11T21:13:52.106Z,17.65
2018-02-11T21:16:26.492Z,8.57
2018-02-11T21:19:00.944Z,4.30
2018-02-11T21:21:35.446Z,4.20
2018-02-11T21:24:09.767Z,1.65
2018-02-11T21:26:44.265Z,1.80
2018-02-11T21:29:19.500Z,1.60
2018-02-11T21:31:53.979Z,4.82
2018-02-11T21:34:28.410Z,5.78
2018-02-11T21:37:03.691Z,2.65
2018-02-11T21:39:38.196Z,1.70
2018-02-11T21:42:12.731Z,2.90
2018-02-11T21:44:47.173Z,1.35
2018-02-11T21:47:21.533Z,3.95
2018-02-11T21:49:55.893Z,8.82
2018-02-11T21:52:30.485Z,5.55
2018-02-11T21:55:04.877Z,10.80
2018-02-11T21:57:39.266Z,1.33
2018-02-11T22:00:13.584Z,3.05
2018-02-11T22:02:48.165Z,11.55
2018-02-11T22:05:22.583Z,2.15
2018-02-11T22:07:57.274Z,23.17
2018-02-11T22:10:31.770Z,1.30
2018-02-11T22:13:07.014Z,0.70
2018-02-11T22:15:41.378Z,13.50
2018-02-11T22:18:15.960Z,3.30
2018-02-11T22:20:50.491Z,4.12
2018-02-11T22:23:25.712Z,9.00
2018-02-11T22:26:00.083Z,4.25
2018-02-11T22:28:34.730Z,3.25
2018-02-11T22:31:09.180Z,1.50
2018-02-11T22:33:43.651Z,1.95
2018-02-11T22:36:18.231Z,1.20
2018-02-11T22:38:52.768Z,0.73
2018-02-11T22:41:28.057Z,5.35
2018-02-11T22:44:02.540Z,2.25
2018-02-11T22:46:37.112Z,1.65
2018-02-11T22:49:11.627Z,3.42
2018-02-11T22:51:46.051Z,1.40
2018-02-11T22:54:20.463Z,1.42
2018-02-11T22:56:55.015Z,27.75
2018-02-11T22:59:29.493Z,1.95
2018-02-11T23:02:03.804Z,2.40
2018-02-11T23:04:38.432Z,1.67
2018-02-11T23:07:12.889Z,2.75
2018-02-11T23:09:47.459Z,1.75
2018-02-11T23:12:21.922Z,8.82
2018-02-11T23:14:56.480Z,1.67
2018-02-11T23:17:31.891Z,0.80
2018-02-11T23:20:06.300Z,3.33
2018-02-11T23:22:40.752Z,6.75
2018-02-11T23:25:15.174Z,5.30
2018-02-11T23:27:49.732Z,8.13
2018-02-11T23:30:24.902Z,8.05
2018-02-11T23:32:59.352Z,0.90
2018-02-11T23:35:33.755Z,5.68
2018-02-11T23:38:08.232Z,1.95
2018-02-11T23:40:42.596Z,1.80
2018-02-11T23:43:17.015Z,20.37
2018-02-11T23:45:51.555Z,1.55
2018-02-11T23:48:26.055Z,1.45
2018-02-11T23:51:00.611Z,1.15
2018-02-11T23:53:35.104Z,2.47
2018-02-11T23:56:09.657Z,0.70
2018-02-11T23:58:44.004Z,1.35
